createdAt,value
2023-02-11T00:02:20.516Z,35.47
2023-02-11T00:04:48.075Z,35.77
2023-02-11T00:07:15.687Z,31.73
2023-02-11T00:09:43.286Z,38.00
2023-02-11T00:12:10.892Z,36.37
2023-02-11T00:14:39.884Z,34.67
2023-02-11T00:17:07.602Z,33.57
2023-02-11T00:19:35.202Z,30.47
2023-02-11T00:22:04.870Z,32.93
2023-02-11T00:24:32.569Z,32.73
2023-02-11T00:27:00.273Z,35.57
2023-02-11T00:29:27.969Z,31.67
2023-02-11T00:31:57.544Z,31.67
2023-02-11T00:34:25.434Z,33.70
2023-02-11T00:36:53.681Z,32.03
2023-02-11T00:39:21.240Z,34.97
2023-02-11T00:41:48.894Z,30.17
2023-02-11T00:44:16.538Z,28.60
2023-02-11T00:46:44.255Z,33.87
2023-02-11T00:51:48.128Z,31.07
2023-02-11T00:54:15.712Z,30.83
2023-02-11T00:56:43.705Z,32.20
2023-02-11T00:59:11.338Z,30.50
2023-02-11T01:01:39.840Z,28.17
2023-02-11T01:04:07.489Z,31.43
2023-02-11T01:06:35.213Z,29.40
2023-02-11T01:09:04.467Z,32.93
2023-02-11T01:11:32.254Z,32.37
2023-02-11T01:13:59.884Z,25.83
2023-02-11T01:16:27.651Z,33.30
2023-02-11T01:18:55.230Z,30.83
2023-02-11T01:21:23.049Z,28.07
2023-02-11T01:23:50.625Z,29.93
2023-02-11T01:26:38.640Z,26.10
2023-02-11T01:29:06.238Z,30.90
2023-02-11T01:31:35.238Z,31.40
2023-02-11T01:34:02.979Z,27.20
2023-02-11T01:36:36.643Z,32.13
2023-02-11T01:39:04.268Z,30.23
2023-02-11T01:41:31.986Z,33.43
2023-02-11T01:44:29.345Z,32.97
2023-02-11T01:46:56.961Z,31.10
2023-02-11T01:49:26.666Z,33.13
2023-02-11T01:51:56.354Z,37.57
2023-02-11T01:54:43.052Z,29.60
2023-02-11T01:57:26.037Z,31.57
2023-02-11T02:00:00.076Z,29.57
2023-02-11T02:02:29.421Z,30.20
2023-02-11T02:05:01.030Z,33.17
2023-02-11T02:07:31.553Z,28.67
2023-02-11T02:10:00.735Z,32.73
2023-02-11T02:12:28.317Z,30.27
2023-02-11T02:17:54.719Z,30.03
2023-02-11T02:20:47.409Z,30.27
2023-02-11T02:23:28.242Z,30.43
2023-02-11T02:26:35.297Z,30.27
2023-02-11T02:29:16.093Z,27.47
2023-02-11T02:31:53.663Z,29.30
2023-02-11T02:34:24.803Z,29.83
2023-02-11T02:36:56.362Z,30.23
2023-02-11T02:39:25.709Z,29.00
2023-02-11T02:41:53.435Z,27.87
2023-02-11T02:44:21.397Z,28.93
2023-02-11T02:46:49.121Z,26.97
2023-02-11T02:49:17.377Z,36.07
2023-02-11T02:52:06.720Z,29.77
2023-02-11T02:55:13.271Z,34.47
2023-02-11T02:57:49.839Z,32.70
2023-02-11T03:00:23.397Z,34.33
2023-02-11T03:02:57.008Z,32.17
2023-02-11T03:05:27.749Z,30.17
2023-02-11T03:07:59.534Z,31.47
2023-02-11T03:10:28.343Z,33.67
2023-02-11T03:12:56.130Z,30.63
2023-02-11T03:15:23.906Z,33.50
2023-02-11T03:17:52.935Z,34.47
2023-02-11T03:20:21.255Z,34.40
2023-02-11T03:22:50.712Z,35.90
2023-02-11T03:25:20.361Z,32.90
2023-02-11T03:27:53.649Z,32.73
2023-02-11T03:30:22.652Z,27.17
2023-02-11T03:32:52.299Z,34.27
2023-02-11T03:35:22.113Z,30.57
2023-02-11T03:37:52.386Z,36.97
2023-02-11T03:40:22.354Z,28.70
2023-02-11T03:42:51.754Z,35.23
2023-02-11T03:45:20.998Z,29.50
2023-02-11T03:47:51.910Z,34.13
2023-02-11T03:50:19.523Z,31.87
2023-02-11T03:52:48.336Z,34.13
2023-02-11T03:55:18.369Z,34.03
2023-02-11T03:57:48.532Z,34.33
2023-02-11T04:00:16.717Z,32.40
2023-02-11T04:02:44.529Z,37.43
2023-02-11T04:05:16.092Z,35.97
2023-02-11T04:07:43.957Z,34.93
2023-02-11T04:10:12.402Z,35.47
2023-02-11T04:12:40.309Z,36.43
2023-02-11T04:15:09.893Z,35.10
2023-02-11T04:17:37.603Z,36.03
2023-02-11T04:20:05.961Z,37.03
2023-02-11T04:22:33.540Z,41.07
2023-02-11T04:25:01.304Z,34.23
2023-02-11T04:27:28.924Z,36.50
2023-02-11T04:29:56.878Z,36.70
2023-02-11T04:32:25.848Z,35.57
2023-02-11T04:34:54.781Z,39.10
2023-02-11T04:37:22.405Z,36.43
2023-02-11T04:39:50.097Z,37.03
2023-02-11T04:42:17.662Z,34.97
2023-02-11T04:44:46.339Z,42.67
2023-02-11T04:47:15.320Z,36.30
2023-02-11T04:49:44.409Z,37.17
2023-02-11T04:52:12.014Z,37.70
2023-02-11T04:54:39.897Z,40.27
2023-02-11T04:57:07.609Z,36.20
2023-02-11T04:59:35.314Z,37.77
2023-02-11T05:02:04.133Z,38.37
2023-02-11T05:04:36.997Z,42.87
2023-02-11T05:07:05.944Z,39.70
2023-02-11T05:09:33.698Z,38.53
2023-02-11T05:12:01.254Z,36.53
2023-02-11T05:14:29.911Z,39.20
2023-02-11T05:16:57.585Z,43.93
2023-02-11T05:19:25.176Z,37.63
2023-02-11T05:22:02.100Z,40.80
2023-02-11T05:24:32.170Z,38.73
2023-02-11T05:27:00.077Z,39.07
2023-02-11T05:29:27.772Z,41.30
2023-02-11T05:31:55.571Z,42.17
2023-02-11T05:34:23.147Z,40.17
2023-02-11T05:36:50.988Z,43.70
2023-02-11T05:39:18.566Z,42.87
2023-02-11T05:41:47.831Z,38.93
2023-02-11T05:44:15.615Z,40.43
2023-02-11T05:46:43.494Z,37.87
2023-02-11T05:49:11.179Z,37.53
2023-02-11T05:51:38.865Z,38.40
2023-02-11T05:54:08.113Z,41.20
2023-02-11T05:56:35.843Z,35.03
2023-02-11T05:59:06.355Z,37.50
2023-02-11T06:01:34.018Z,36.13
2023-02-11T06:04:03.680Z,38.00
2023-02-11T06:06:31.407Z,34.23
2023-02-11T06:08:59.119Z,35.07
2023-02-11T06:11:26.970Z,38.10
2023-02-11T06:13:54.536Z,37.00
2023-02-11T06:16:23.986Z,35.07
2023-02-11T06:18:59.452Z,35.00
2023-02-11T06:21:40.026Z,36.27
2023-02-11T06:24:11.450Z,31.33
2023-02-11T06:26:39.164Z,34.60
2023-02-11T06:29:06.737Z,30.97
2023-02-11T06:31:35.879Z,31.53
2023-02-11T06:34:03.589Z,29.00
2023-02-11T06:36:31.228Z,31.23
2023-02-11T06:38:58.884Z,32.23
2023-02-11T06:41:26.532Z,30.57
2023-02-11T06:43:54.246Z,31.63
2023-02-11T06:46:22.485Z,31.07
2023-02-11T06:48:51.406Z,31.20
2023-02-11T06:51:19.282Z,31.17
2023-02-11T06:56:16.622Z,33.47
2023-02-11T06:58:44.242Z,33.67
2023-02-11T07:01:12.700Z,36.43
2023-02-11T07:03:41.381Z,35.53
2023-02-11T07:06:12.842Z,34.50
2023-02-11T07:08:42.407Z,36.23
2023-02-11T07:11:11.137Z,37.57
2023-02-11T07:13:38.711Z,39.67
2023-02-11T07:16:07.680Z,42.03
2023-02-11T07:18:35.437Z,45.93
2023-02-11T07:21:05.478Z,41.67
2023-02-11T07:23:34.568Z,45.63
2023-02-11T07:26:04.184Z,49.30
2023-02-11T07:28:31.905Z,49.70
2023-02-11T07:30:59.753Z,48.60
2023-02-11T07:33:27.367Z,55.83
2023-02-11T07:35:55.019Z,57.23
2023-02-11T07:38:22.651Z,56.23
2023-02-11T07:40:51.698Z,50.00
2023-02-11T07:43:19.305Z,53.57
2023-02-11T07:45:46.878Z,55.83
2023-02-11T07:48:14.848Z,52.20
2023-02-11T07:50:42.484Z,52.97
2023-02-11T07:53:11.699Z,60.87
2023-02-11T07:55:39.349Z,61.47
2023-02-11T07:58:08.450Z,62.10
2023-02-11T08:00:36.488Z,59.40
2023-02-11T08:03:05.295Z,59.43
2023-02-11T08:05:33.673Z,54.57
2023-02-11T08:08:02.459Z,60.50
2023-02-11T08:10:30.136Z,66.53
2023-02-11T08:12:57.695Z,56.27
2023-02-11T08:15:26.752Z,57.30
2023-02-11T08:17:54.365Z,63.73
2023-02-11T08:20:23.079Z,60.20
2023-02-11T08:22:50.718Z,64.33
2023-02-11T08:25:18.584Z,61.03
2023-02-11T08:27:46.147Z,59.47
2023-02-11T08:30:14.986Z,60.10
2023-02-11T08:32:46.308Z,63.23
2023-02-11T08:35:14.159Z,59.47
2023-02-11T08:37:41.744Z,63.97
2023-02-11T08:40:11.324Z,61.73
2023-02-11T08:42:39.682Z,54.27
2023-02-11T08:45:10.371Z,62.73
2023-02-11T08:47:38.081Z,60.10
2023-02-11T08:50:07.822Z,63.40
2023-02-11T08:52:35.489Z,66.90
2023-02-11T08:55:03.078Z,67.23
2023-02-11T08:57:30.901Z,61.63
2023-02-11T08:59:59.550Z,66.13
2023-02-11T09:02:27.277Z,59.80
2023-02-11T09:04:54.867Z,61.17
2023-02-11T09:07:24.074Z,61.77
2023-02-11T09:09:51.677Z,61.70
2023-02-11T09:12:19.310Z,62.43
2023-02-11T09:14:47.133Z,65.33
2023-02-11T09:17:15.039Z,63.63
2023-02-11T09:19:42.681Z,67.80
2023-02-11T09:22:10.351Z,67.50
2023-02-11T09:24:39.297Z,60.17
2023-02-11T09:27:06.871Z,74.03
2023-02-11T09:29:34.457Z,67.67
2023-02-11T09:32:02.189Z,62.67
2023-02-11T09:34:29.931Z,71.27
2023-02-11T09:36:57.513Z,81.87
2023-02-11T09:39:26.659Z,69.67
2023-02-11T09:42:25.841Z,63.10
2023-02-11T09:44:53.835Z,69.67
2023-02-11T09:47:26.955Z,71.53
2023-02-11T09:50:00.045Z,65.10
2023-02-11T09:52:33.633Z,71.87
2023-02-11T09:55:01.896Z,68.97
2023-02-11T09:57:33.365Z,67.43
2023-02-11T10:00:01.345Z,74.10
2023-02-11T10:02:33.352Z,68.27
2023-02-11T10:05:13.691Z,71.20
2023-02-11T10:07:43.894Z,68.77
2023-02-11T10:10:14.542Z,73.63
2023-02-11T10:13:01.598Z,74.60
2023-02-11T10:15:34.082Z,74.53
2023-02-11T10:18:16.999Z,71.90
2023-02-11T10:20:49.950Z,73.67
2023-02-11T10:23:20.102Z,67.10
2023-02-11T10:25:50.635Z,70.10
2023-02-11T10:28:20.402Z,71.63
2023-02-11T10:30:52.918Z,66.70
2023-02-11T10:33:24.019Z,71.03
2023-02-11T10:35:51.561Z,60.27
2023-02-11T10:38:20.207Z,70.30
2023-02-11T10:40:47.851Z,68.00
2023-02-11T10:43:16.734Z,70.40
2023-02-11T10:45:46.629Z,60.70
2023-02-11T10:48:40.846Z,66.93
2023-02-11T10:51:09.716Z,66.73
2023-02-11T10:53:37.400Z,68.53
2023-02-11T10:56:05.386Z,66.00
2023-02-11T10:58:44.057Z,67.40
2023-02-11T11:01:23.952Z,72.47
2023-02-11T11:03:52.406Z,64.20
2023-02-11T11:06:30.106Z,70.47
2023-02-11T11:08:57.742Z,74.07
2023-02-11T11:11:26.314Z,68.70
2023-02-11T11:13:59.083Z,77.63
2023-02-11T11:16:29.094Z,75.63
2023-02-11T11:19:16.352Z,67.80
2023-02-11T11:21:44.611Z,67.17
2023-02-11T11:24:17.543Z,70.77
2023-02-11T11:26:46.149Z,78.73
2023-02-11T11:29:16.029Z,73.47
2023-02-11T11:31:50.368Z,70.27
2023-02-11T11:34:23.295Z,74.07
2023-02-11T11:36:50.903Z,73.90
2023-02-11T11:39:21.530Z,68.57
2023-02-11T11:41:56.508Z,72.67
2023-02-11T11:44:32.186Z,71.30
2023-02-11T11:47:27.612Z,67.93
2023-02-11T11:50:11.886Z,70.73
2023-02-11T11:52:42.596Z,75.57
2023-02-11T11:55:14.385Z,78.43
2023-02-11T11:57:42.169Z,70.00
2023-02-11T12:00:16.437Z,69.73
2023-02-11T12:03:22.722Z,73.97
2023-02-11T12:06:00.046Z,75.60
2023-02-11T12:08:33.569Z,71.90
2023-02-11T12:11:06.946Z,72.93
2023-02-11T12:13:42.053Z,61.93
2023-02-11T12:16:15.793Z,69.83
2023-02-11T12:19:07.571Z,69.53
2023-02-11T12:21:41.308Z,63.27
2023-02-11T12:24:18.065Z,62.50
2023-02-11T12:26:47.328Z,72.17
2023-02-11T12:29:20.257Z,68.33
2023-02-11T12:31:57.411Z,63.70
2023-02-11T12:34:36.619Z,63.87
2023-02-11T12:37:10.203Z,73.43
2023-02-11T12:39:42.180Z,68.83
2023-02-11T12:42:55.028Z,74.90
2023-02-11T12:45:28.636Z,72.30
2023-02-11T12:48:03.350Z,65.53
2023-02-11T12:50:34.171Z,70.73
2023-02-11T12:53:26.224Z,68.13
2023-02-11T12:55:57.751Z,62.40
2023-02-11T12:58:35.475Z,64.77
2023-02-11T13:01:09.345Z,69.27
2023-02-11T13:03:38.748Z,65.67
2023-02-11T13:06:07.770Z,65.70
2023-02-11T13:08:38.265Z,58.50
2023-02-11T13:11:14.246Z,65.07
2023-02-11T13:13:48.193Z,67.43
2023-02-11T13:16:20.635Z,72.43
2023-02-11T13:18:51.392Z,67.53
2023-02-11T13:21:44.201Z,60.00
2023-02-11T13:24:20.351Z,68.07
2023-02-11T13:26:51.197Z,73.33
2023-02-11T13:29:25.063Z,71.90
2023-02-11T13:31:56.249Z,64.40
2023-02-11T13:34:27.877Z,65.33
2023-02-11T13:36:56.114Z,67.77
2023-02-11T13:39:25.156Z,63.50
2023-02-11T13:41:52.989Z,70.07
2023-02-11T13:44:26.700Z,68.37
2023-02-11T13:46:59.603Z,71.03
2023-02-11T13:49:31.189Z,65.83
2023-02-11T13:51:59.293Z,63.53
2023-02-11T13:54:30.932Z,63.67
2023-02-11T13:57:23.740Z,56.77
2023-02-11T13:59:51.469Z,71.60
2023-02-11T14:02:42.435Z,71.10
2023-02-11T14:05:45.591Z,69.03
2023-02-11T14:08:39.515Z,65.17
2023-02-11T14:11:12.341Z,65.10
2023-02-11T14:14:15.736Z,67.33
2023-02-11T14:17:22.050Z,65.40
2023-02-11T14:19:50.356Z,68.20
2023-02-11T14:22:19.413Z,63.93
2023-02-11T14:24:52.427Z,69.83
2023-02-11T14:27:26.198Z,71.97
2023-02-11T14:30:08.676Z,61.53
2023-02-11T14:32:41.519Z,69.47
2023-02-11T14:35:11.151Z,66.17
2023-02-11T14:37:50.336Z,68.53
2023-02-11T14:40:24.160Z,68.33
2023-02-11T14:42:53.861Z,68.57
2023-02-11T14:45:24.795Z,66.63
2023-02-11T14:47:54.615Z,67.30
2023-02-11T14:50:25.105Z,72.47
2023-02-11T14:52:52.831Z,69.73
2023-02-11T14:55:30.088Z,71.97
2023-02-11T14:58:12.485Z,70.07
2023-02-11T15:00:53.646Z,65.67
2023-02-11T15:03:35.835Z,71.67
2023-02-11T15:06:05.962Z,79.60
2023-02-11T15:08:34.273Z,70.67
2023-02-11T15:11:02.694Z,71.40
2023-02-11T15:13:32.044Z,72.90
2023-02-11T15:16:02.002Z,73.47
2023-02-11T15:18:34.361Z,73.67
2023-02-11T15:21:01.956Z,75.70
2023-02-11T15:23:30.866Z,68.30
2023-02-11T15:26:03.032Z,70.73
2023-02-11T15:28:32.920Z,63.40
2023-02-11T15:31:01.816Z,68.63
2023-02-11T15:33:31.928Z,75.87
2023-02-11T15:36:00.253Z,72.60
2023-02-11T15:38:27.972Z,80.50
2023-02-11T15:40:57.098Z,73.13
2023-02-11T15:43:24.750Z,66.73
2023-02-11T15:45:59.128Z,67.60
2023-02-11T15:48:31.525Z,76.07
2023-02-11T15:51:00.920Z,68.10
2023-02-11T15:53:29.649Z,71.03
2023-02-11T15:56:02.298Z,71.27
2023-02-11T15:58:29.946Z,67.00
2023-02-11T16:00:59.996Z,66.27
2023-02-11T16:03:32.271Z,62.37
2023-02-11T16:06:18.574Z,67.63
2023-02-11T16:08:57.735Z,67.30
2023-02-11T16:11:26.863Z,65.83
2023-02-11T16:13:54.498Z,67.10
2023-02-11T16:16:24.323Z,64.10
2023-02-11T16:19:03.134Z,67.93
2023-02-11T16:21:35.520Z,63.27
2023-02-11T16:24:03.794Z,57.97
2023-02-11T16:26:33.288Z,60.33
2023-02-11T16:29:11.454Z,61.60
2023-02-11T16:31:42.081Z,62.50
2023-02-11T16:34:14.424Z,61.90
2023-02-11T16:36:42.058Z,80.23
2023-02-11T16:39:09.752Z,68.67
2023-02-11T16:41:37.355Z,68.80
2023-02-11T16:44:05.086Z,68.57
2023-02-11T16:46:33.047Z,66.07
2023-02-11T16:49:09.728Z,73.47
2023-02-11T16:51:40.055Z,67.27
2023-02-11T16:54:07.657Z,71.63
2023-02-11T16:56:38.525Z,73.30
2023-02-11T16:59:06.143Z,74.90
2023-02-11T17:01:33.855Z,68.50
2023-02-11T17:04:02.823Z,83.70
2023-02-11T17:06:30.689Z,72.33
2023-02-11T17:08:58.266Z,73.20
2023-02-11T17:11:29.381Z,74.50
2023-02-11T17:13:57.047Z,70.70
2023-02-11T17:16:27.630Z,77.97
2023-02-11T17:19:00.240Z,71.70
2023-02-11T17:21:31.383Z,71.93
2023-02-11T17:23:58.972Z,70.93
2023-02-11T17:26:26.650Z,69.20
2023-02-11T17:28:54.220Z,84.00
2023-02-11T17:31:27.715Z,74.10
2023-02-11T17:33:58.278Z,80.80
2023-02-11T17:36:25.845Z,79.63
2023-02-11T17:38:55.536Z,71.93
2023-02-11T17:41:23.434Z,83.80
2023-02-11T17:43:51.925Z,71.67
2023-02-11T17:46:19.581Z,79.50
2023-02-11T17:48:47.275Z,76.97
2023-02-11T17:51:24.356Z,76.30
2023-02-11T17:53:52.101Z,80.77
2023-02-11T17:59:03.396Z,75.83
2023-02-11T18:01:31.428Z,79.87
2023-02-11T18:03:59.067Z,75.43
2023-02-11T18:06:28.948Z,86.07
2023-02-11T18:08:58.020Z,74.53
2023-02-11T18:11:25.957Z,84.60
2023-02-11T18:13:54.489Z,80.90
2023-02-11T18:16:23.781Z,84.33
2023-02-11T18:18:51.510Z,82.53
2023-02-11T18:21:20.622Z,84.90
2023-02-11T18:23:48.248Z,82.47
2023-02-11T18:26:16.647Z,80.00
2023-02-11T18:28:45.988Z,80.60
2023-02-11T18:31:14.475Z,86.20
2023-02-11T18:33:43.602Z,85.70
2023-02-11T18:36:15.300Z,89.53
2023-02-11T18:38:44.960Z,85.73
2023-02-11T18:41:13.073Z,82.60
2023-02-11T18:43:40.897Z,85.70
2023-02-11T18:46:11.533Z,89.07
2023-02-11T18:48:39.614Z,90.40
2023-02-11T18:51:10.965Z,86.47
2023-02-11T18:53:38.747Z,91.50
2023-02-11T18:56:13.100Z,82.53
2023-02-11T18:58:42.018Z,82.53
2023-02-11T19:01:13.831Z,86.57
2023-02-11T19:03:44.928Z,91.87
2023-02-11T19:06:19.767Z,80.40
2023-02-11T19:08:47.592Z,80.30
2023-02-11T19:11:17.184Z,82.60
2023-02-11T19:13:44.813Z,77.63
2023-02-11T19:16:14.763Z,87.60
2023-02-11T19:18:43.564Z,80.33
2023-02-11T19:21:11.788Z,87.00
2023-02-11T19:23:44.799Z,95.43
2023-02-11T19:26:12.733Z,86.97
2023-02-11T19:28:40.469Z,84.00
2023-02-11T19:31:09.153Z,90.33
2023-02-11T19:33:36.870Z,88.40
2023-02-11T19:36:06.662Z,85.30
2023-02-11T19:38:37.004Z,92.47
2023-02-11T19:41:08.800Z,76.13
2023-02-11T19:43:36.591Z,82.80
2023-02-11T19:46:04.318Z,84.20
2023-02-11T19:48:40.772Z,84.90
2023-02-11T19:51:10.858Z,81.97
2023-02-11T19:53:40.965Z,84.80
2023-02-11T19:56:10.493Z,84.70
2023-02-11T19:58:39.499Z,80.87
2023-02-11T20:01:08.334Z,84.10
2023-02-11T20:03:36.426Z,93.20
2023-02-11T20:06:06.080Z,85.50
2023-02-11T20:08:34.145Z,89.70
2023-02-11T20:11:07.348Z,80.73
2023-02-11T20:13:37.566Z,79.90
2023-02-11T20:16:07.121Z,85.60
2023-02-11T20:18:34.925Z,83.80
2023-02-11T20:21:07.517Z,80.63
2023-02-11T20:23:35.287Z,84.60
2023-02-11T20:26:07.199Z,83.67
2023-02-11T20:28:37.427Z,84.87
2023-02-11T20:31:06.008Z,80.23
2023-02-11T20:33:34.934Z,79.40
2023-02-11T20:36:04.075Z,89.50
2023-02-11T20:38:32.207Z,89.87
2023-02-11T20:41:03.956Z,78.23
2023-02-11T20:43:31.913Z,79.50
2023-02-11T20:46:04.282Z,77.33
2023-02-11T20:48:32.194Z,77.77
2023-02-11T20:51:06.484Z,80.53
2023-02-11T20:53:35.333Z,79.43
2023-02-11T20:56:03.788Z,79.87
2023-02-11T20:58:31.774Z,81.00
2023-02-11T21:01:08.463Z,84.80
2023-02-11T21:03:36.257Z,76.80
2023-02-11T21:06:04.711Z,84.93
2023-02-11T21:08:33.208Z,80.47
2023-02-11T21:11:01.852Z,83.03
2023-02-11T21:13:29.568Z,82.10
2023-02-11T21:15:58.511Z,86.33
2023-02-11T21:18:27.526Z,87.03
2023-02-11T21:21:00.839Z,76.43
2023-02-11T21:23:28.981Z,79.03
2023-02-11T21:25:57.255Z,76.90
2023-02-11T21:28:27.527Z,80.03
2023-02-11T21:31:18.266Z,82.70
2023-02-11T21:33:47.324Z,89.33
2023-02-11T21:36:15.047Z,79.20
2023-02-11T21:38:42.685Z,79.77
2023-02-11T21:41:10.368Z,79.67
2023-02-11T21:43:41.017Z,75.43
2023-02-11T21:46:09.838Z,87.70
2023-02-11T21:48:37.608Z,79.87
2023-02-11T21:51:07.894Z,85.97
2023-02-11T21:53:35.517Z,81.53
2023-02-11T21:56:07.322Z,75.87
2023-02-11T21:58:37.032Z,80.23
2023-02-11T22:01:13.779Z,82.80
2023-02-11T22:03:41.785Z,84.23
2023-02-11T22:06:12.425Z,79.37
2023-02-11T22:08:40.021Z,78.33
2023-02-11T22:11:08.621Z,85.10
2023-02-11T22:13:36.764Z,77.00
2023-02-11T22:16:05.565Z,73.53
2023-02-11T22:18:33.345Z,72.97
2023-02-11T22:21:01.529Z,73.80
2023-02-11T22:23:30.597Z,80.73
2023-02-11T22:26:00.347Z,76.13
2023-02-11T22:28:27.990Z,80.83
2023-02-11T22:30:55.914Z,75.20
2023-02-11T22:33:28.598Z,81.27
2023-02-11T22:35:59.917Z,79.37
2023-02-11T22:38:30.556Z,76.80
2023-02-11T22:40:59.700Z,76.27
2023-02-11T22:43:28.152Z,72.70
2023-02-11T22:45:56.994Z,69.40
2023-02-11T22:48:27.936Z,80.67
2023-02-11T22:51:04.680Z,77.87
2023-02-11T22:53:32.287Z,72.03
2023-02-11T22:56:15.976Z,76.37
2023-02-11T22:58:44.124Z,78.60
2023-02-11T23:01:12.574Z,74.37
2023-02-11T23:03:40.383Z,66.50
2023-02-11T23:06:08.283Z,78.10
2023-02-11T23:08:36.143Z,75.30
2023-02-11T23:11:05.528Z,77.90
2023-02-11T23:13:37.884Z,76.43
2023-02-11T23:16:06.372Z,76.00
2023-02-11T23:18:34.359Z,74.47
2023-02-11T23:21:06.832Z,81.63
2023-02-11T23:23:34.503Z,78.03
2023-02-11T23:26:02.302Z,68.73
2023-02-11T23:28:30.086Z,72.23
2023-02-11T23:30:59.094Z,73.20
2023-02-11T23:33:26.758Z,72.27
2023-02-11T23:35:54.658Z,67.93
2023-02-11T23:38:22.497Z,77.77
2023-02-11T23:40:50.352Z,76.80
2023-02-11T23:43:18.098Z,82.93
2023-02-11T23:45:45.791Z,72.77
2023-02-11T23:48:14.843Z,76.83
2023-02-11T23:50:44.043Z,71.47
2023-02-11T23:53:11.611Z,69.93
2023-02-11T23:55:41.137Z,75.47
2023-02-11T23:58:08.828Z,71.23
